createdAt,value
2018-11-02T00:01:58.625Z,85.70
2018-11-02T00:04:27.228Z,86.40
2018-11-02T00:06:55.539Z,86.70
2018-11-02T00:09:38.928Z,87.10
2018-11-02T00:12:07.390Z,88.00
2018-11-02T00:14:35.635Z,87.90
2018-11-02T00:17:03.928Z,87.50
2018-11-02T00:19:33.695Z,86.90
2018-11-02T00:22:03.395Z,87.70
2018-11-02T00:24:31.859Z,87.30
2018-11-02T00:27:00.678Z,87.70
2018-11-02T00:29:30.093Z,87.30
2018-11-02T00:31:58.631Z,88.10
2018-11-02T00:34:27.324Z,88.20
2018-11-02T00:36:55.938Z,87.90
2018-11-02T00:39:24.614Z,87.40
2018-11-02T00:41:52.893Z,87.90
2018-11-02T00:44:21.304Z,87.60
2018-11-02T00:46:49.666Z,87.60
2018-11-02T00:49:17.630Z,88.10
2018-11-02T00:51:45.591Z,88.10
2018-11-02T00:54:13.596Z,87.90
2018-11-02T00:56:50.072Z,87.70
2018-11-02T00:59:19.148Z,86.90
2018-11-02T01:01:47.227Z,86.40
2018-11-02T01:04:15.199Z,86.00
2018-11-02T01:06:43.129Z,86.20
2018-11-02T01:09:11.579Z,86.90
2018-11-02T01:11:39.895Z,88.30
2018-11-02T01:14:07.820Z,88.10
2018-11-02T01:16:35.831Z,87.60
2018-11-02T01:19:04.168Z,87.20
2018-11-02T01:21:34.944Z,87.70
2018-11-02T01:24:03.383Z,87.00
2018-11-02T01:26:31.405Z,86.50
2018-11-02T01:28:59.390Z,85.70
2018-11-02T01:31:27.730Z,84.70
2018-11-02T01:33:55.660Z,84.30
2018-11-02T01:36:23.608Z,85.00
2018-11-02T01:38:51.545Z,85.20
2018-11-02T01:41:19.507Z,84.30
2018-11-02T01:43:47.474Z,85.40
2018-11-02T01:46:15.387Z,84.90
2018-11-02T01:48:43.391Z,85.00
2018-11-02T01:51:11.311Z,85.30
2018-11-02T01:53:39.206Z,85.30
2018-11-02T01:56:07.194Z,86.00
2018-11-02T01:58:35.179Z,86.00
2018-11-02T02:01:03.120Z,85.70
2018-11-02T02:03:31.080Z,86.20
2018-11-02T02:05:59.016Z,87.10
2018-11-02T02:08:26.992Z,86.20
2018-11-02T02:10:54.954Z,86.70
2018-11-02T02:13:23.085Z,86.70
2018-11-02T02:15:50.871Z,86.40
2018-11-02T02:18:18.803Z,86.60
2018-11-02T02:20:46.757Z,86.60
2018-11-02T02:23:14.726Z,86.40
2018-11-02T02:25:42.701Z,86.50
2018-11-02T02:28:10.601Z,86.70
2018-11-02T02:30:38.571Z,86.70
2018-11-02T02:33:06.536Z,86.30
2018-11-02T02:35:34.447Z,85.30
2018-11-02T02:38:02.368Z,86.60
2018-11-02T02:40:30.299Z,87.00
2018-11-02T02:42:58.227Z,86.70
2018-11-02T02:45:26.140Z,86.10
2018-11-02T02:47:54.075Z,86.50
2018-11-02T02:50:21.983Z,87.20
2018-11-02T02:52:49.897Z,87.40
2018-11-02T02:55:17.939Z,86.70
2018-11-02T02:57:45.882Z,87.10
2018-11-02T03:00:14.622Z,87.30
2018-11-02T03:02:43.011Z,88.00
2018-11-02T03:05:11.375Z,87.20
2018-11-02T03:07:40.161Z,87.80
2018-11-02T03:10:08.496Z,87.10
2018-11-02T03:12:36.522Z,87.40
2018-11-02T03:15:04.604Z,86.60
2018-11-02T03:17:32.530Z,86.90
2018-11-02T03:20:00.487Z,86.40
2018-11-02T03:22:28.468Z,86.00
2018-11-02T03:24:56.305Z,86.50
2018-11-02T03:27:24.227Z,86.40
2018-11-02T03:29:52.139Z,86.30
2018-11-02T03:32:20.059Z,86.10
2018-11-02T03:34:48.000Z,86.60
2018-11-02T03:37:15.911Z,86.20
2018-11-02T03:39:43.920Z,85.90
2018-11-02T03:42:11.859Z,86.40
2018-11-02T03:44:39.840Z,86.40
2018-11-02T03:47:07.887Z,85.50
2018-11-02T03:49:35.788Z,85.60
2018-11-02T03:52:03.715Z,86.10
2018-11-02T03:54:31.680Z,86.10
2018-11-02T03:56:59.657Z,86.40
2018-11-02T03:59:27.511Z,86.80
2018-11-02T04:01:55.432Z,86.50
2018-11-02T04:04:23.327Z,86.30
2018-11-02T04:06:51.268Z,87.10
2018-11-02T04:09:19.940Z,87.50
2018-11-02T04:11:47.813Z,88.00
2018-11-02T04:14:15.716Z,89.30
2018-11-02T04:16:43.657Z,88.70
2018-11-02T04:19:11.585Z,88.40
2018-11-02T04:21:47.435Z,87.60
2018-11-02T04:24:15.536Z,87.60
2018-11-02T04:26:43.472Z,87.90
2018-11-02T04:29:12.742Z,87.00
2018-11-02T04:31:41.293Z,86.60
2018-11-02T04:34:09.291Z,86.90
2018-11-02T04:36:37.279Z,86.60
2018-11-02T04:39:07.746Z,87.10
2018-11-02T04:41:36.290Z,86.90
2018-11-02T04:44:05.158Z,86.90
2018-11-02T04:46:33.157Z,86.20
2018-11-02T04:49:01.068Z,86.20
2018-11-02T04:51:29.029Z,87.40
2018-11-02T04:53:56.951Z,88.80
2018-11-02T04:56:25.700Z,89.40
2018-11-02T04:58:53.655Z,89.80
2018-11-02T05:01:22.120Z,89.20
2018-11-02T05:03:50.129Z,87.80
2018-11-02T05:06:18.046Z,87.80
2018-11-02T05:08:45.967Z,88.20
2018-11-02T05:11:14.547Z,88.10
2018-11-02T05:13:42.646Z,86.90
2018-11-02T05:16:10.623Z,87.40
2018-11-02T05:18:38.526Z,87.50
2018-11-02T05:21:07.406Z,86.60
2018-11-02T05:23:35.803Z,87.20
2018-11-02T05:26:03.750Z,88.00
2018-11-02T05:28:32.107Z,88.10
2018-11-02T05:31:00.062Z,88.10
2018-11-02T05:33:27.971Z,87.80
2018-11-02T05:35:56.488Z,89.10
2018-11-02T05:38:24.388Z,89.20
2018-11-02T05:40:52.432Z,89.60
2018-11-02T05:43:20.429Z,89.50
2018-11-02T05:45:48.472Z,89.80
2018-11-02T05:48:16.446Z,89.70
2018-11-02T05:50:44.524Z,89.00
2018-11-02T05:53:12.444Z,87.50
2018-11-02T05:55:40.387Z,86.60
2018-11-02T05:58:08.331Z,85.90
2018-11-02T06:00:36.257Z,85.60
2018-11-02T06:03:04.620Z,86.00
2018-11-02T06:05:32.566Z,85.30
2018-11-02T06:08:00.542Z,85.00
2018-11-02T06:10:28.430Z,85.60
2018-11-02T06:12:56.348Z,86.30
2018-11-02T06:15:24.305Z,86.70
2018-11-02T06:17:52.209Z,86.40
2018-11-02T06:20:20.171Z,86.50
2018-11-02T06:22:48.103Z,87.20
2018-11-02T06:25:16.019Z,87.10
2018-11-02T06:27:43.988Z,86.70
2018-11-02T06:30:11.906Z,87.40
2018-11-02T06:32:39.858Z,87.50
2018-11-02T06:35:09.064Z,87.60
2018-11-02T06:37:36.968Z,87.10
2018-11-02T06:40:05.604Z,87.10
2018-11-02T06:42:33.646Z,87.40
2018-11-02T06:45:01.659Z,87.80
2018-11-02T06:47:29.559Z,87.00
2018-11-02T06:49:57.551Z,86.60
2018-11-02T06:52:25.472Z,86.50
2018-11-02T06:54:53.418Z,86.60
2018-11-02T06:57:21.411Z,86.60
2018-11-02T06:59:49.602Z,87.50
2018-11-02T07:02:17.384Z,86.80
2018-11-02T07:04:57.054Z,87.40
2018-11-02T07:07:29.611Z,87.70
2018-11-02T07:09:58.982Z,88.00
2018-11-02T07:12:27.788Z,88.00
2018-11-02T07:14:58.679Z,87.60
2018-11-02T07:17:28.481Z,87.90
2018-11-02T07:19:58.059Z,88.40
2018-11-02T07:22:31.396Z,88.40
2018-11-02T07:24:59.293Z,88.80
2018-11-02T07:27:27.427Z,89.10
2018-11-02T07:29:55.326Z,88.90
2018-11-02T07:32:23.261Z,88.80
2018-11-02T07:34:51.126Z,88.80
2018-11-02T07:37:19.063Z,89.10
2018-11-02T07:39:46.984Z,89.70
2018-11-02T07:42:14.936Z,90.20
2018-11-02T07:44:42.826Z,90.40
2018-11-02T07:47:10.773Z,90.50
2018-11-02T07:49:38.680Z,90.50
2018-11-02T07:52:06.694Z,90.40
2018-11-02T07:54:34.567Z,90.40
2018-11-02T07:57:02.467Z,90.30
2018-11-02T07:59:30.397Z,90.30
2018-11-02T08:01:58.419Z,90.30
2018-11-02T08:04:26.174Z,90.50
2018-11-02T08:06:54.137Z,90.60
2018-11-02T08:09:22.459Z,90.50
2018-11-02T08:11:50.327Z,90.50
2018-11-02T08:14:18.247Z,90.50
2018-11-02T08:16:46.112Z,90.50
2018-11-02T08:19:14.008Z,90.40
2018-11-02T08:21:41.991Z,90.30
2018-11-02T08:24:09.907Z,90.20
2018-11-02T08:26:37.804Z,89.90
2018-11-02T08:29:06.215Z,89.50
2018-11-02T08:31:34.099Z,88.50
2018-11-02T08:34:01.960Z,88.60
2018-11-02T08:36:29.881Z,88.50
2018-11-02T08:38:57.750Z,88.40
2018-11-02T08:41:25.645Z,87.70
2018-11-02T08:43:53.610Z,85.90
2018-11-02T08:46:21.571Z,85.50
2018-11-02T08:48:49.416Z,85.30
2018-11-02T08:51:17.319Z,85.20
2018-11-02T08:53:45.208Z,84.70
2018-11-02T08:56:13.166Z,84.00
2018-11-02T08:58:41.244Z,83.00
2018-11-02T09:01:09.007Z,82.70
2018-11-02T09:03:36.888Z,81.40
2018-11-02T09:06:05.090Z,81.30
2018-11-02T09:08:32.954Z,81.60
2018-11-02T09:11:00.921Z,81.90
2018-11-02T09:13:28.898Z,82.40
2018-11-02T09:15:56.806Z,81.90
2018-11-02T09:18:24.743Z,81.80
2018-11-02T09:20:52.701Z,81.70
2018-11-02T09:23:20.602Z,81.50
2018-11-02T09:25:48.539Z,81.40
2018-11-02T09:28:16.542Z,80.20
2018-11-02T09:30:44.466Z,79.70
2018-11-02T09:33:12.383Z,79.60
2018-11-02T09:35:40.348Z,79.80
2018-11-02T09:38:08.299Z,77.90
2018-11-02T09:40:36.351Z,77.60
2018-11-02T09:43:04.303Z,77.30
2018-11-02T09:45:32.214Z,77.80
2018-11-02T09:48:00.194Z,77.80
2018-11-02T09:51:31.325Z,77.10
2018-11-02T09:53:59.175Z,76.10
2018-11-02T09:56:27.125Z,75.50
2018-11-02T09:58:56.670Z,74.80
2018-11-02T10:01:24.608Z,72.90
2018-11-02T10:03:52.606Z,72.10
2018-11-02T10:06:20.636Z,70.30
2018-11-02T10:08:48.595Z,69.20
2018-11-02T10:11:16.641Z,67.90
2018-11-02T10:13:44.673Z,65.70
2018-11-02T10:16:12.685Z,62.90
2018-11-02T10:18:40.653Z,63.50
2018-11-02T10:21:08.631Z,61.70
2018-11-02T10:23:38.208Z,59.90
2018-11-02T10:26:06.233Z,60.00
2018-11-02T10:28:34.334Z,57.30
2018-11-02T10:31:02.456Z,57.50
2018-11-02T10:33:30.574Z,55.50
2018-11-02T10:35:58.867Z,56.20
2018-11-02T10:38:26.804Z,54.30
2018-11-02T10:40:56.707Z,53.20
2018-11-02T10:43:25.920Z,51.90
2018-11-02T10:45:58.085Z,52.40
2018-11-02T10:48:28.021Z,52.00
2018-11-02T10:50:56.950Z,51.80
2018-11-02T10:53:25.227Z,50.10
2018-11-02T10:55:53.232Z,50.50
2018-11-02T10:58:21.198Z,49.10
2018-11-02T11:00:54.887Z,48.80
2018-11-02T11:03:23.173Z,46.90
2018-11-02T11:05:51.174Z,47.50
2018-11-02T11:08:19.458Z,48.40
2018-11-02T11:10:47.507Z,48.20
2018-11-02T11:13:15.770Z,48.20
2018-11-02T11:15:43.522Z,46.90
2018-11-02T11:18:11.474Z,49.00
2018-11-02T11:20:39.423Z,50.00
2018-11-02T11:23:07.504Z,47.00
2018-11-02T11:25:35.491Z,47.30
2018-11-02T11:28:03.582Z,47.40
2018-11-02T11:30:31.646Z,45.70
2018-11-02T11:32:59.662Z,47.60
2018-11-02T11:35:27.744Z,47.50
2018-11-02T11:37:55.761Z,47.80
2018-11-02T11:40:23.703Z,46.20
2018-11-02T11:42:51.678Z,45.40
2018-11-02T11:45:20.562Z,49.00
2018-11-02T11:47:48.584Z,48.40
2018-11-02T11:50:21.028Z,49.40
2018-11-02T11:52:51.217Z,47.90
2018-11-02T11:55:19.347Z,48.60
2018-11-02T11:57:47.359Z,49.60
2018-11-02T12:00:17.657Z,50.70
2018-11-02T12:02:47.497Z,50.00
2018-11-02T12:05:17.483Z,50.90
2018-11-02T12:07:45.610Z,48.90
2018-11-02T12:10:16.185Z,48.80
2018-11-02T12:12:44.214Z,50.40
2018-11-02T12:15:14.334Z,50.50
2018-11-02T12:17:43.239Z,49.20
2018-11-02T12:20:15.351Z,50.70
2018-11-02T12:22:44.089Z,49.60
2018-11-02T12:25:12.917Z,50.00
2018-11-02T12:27:41.713Z,50.30
2018-11-02T12:30:12.378Z,49.70
2018-11-02T12:32:42.452Z,51.50
2018-11-02T12:35:12.525Z,52.40
2018-11-02T12:37:40.580Z,48.40
2018-11-02T12:40:13.981Z,49.30
2018-11-02T12:42:42.412Z,49.40
2018-11-02T12:45:12.644Z,50.60
2018-11-02T12:47:42.719Z,50.00
2018-11-02T12:50:14.761Z,49.30
2018-11-02T12:52:43.672Z,50.00
2018-11-02T12:55:13.332Z,51.40
2018-11-02T12:57:41.778Z,51.60
2018-11-02T13:00:15.363Z,52.50
2018-11-02T13:02:44.457Z,52.40
2018-11-02T13:05:12.475Z,52.40
2018-11-02T13:07:40.570Z,53.50
2018-11-02T13:10:10.026Z,52.60
2018-11-02T13:12:39.502Z,50.80
2018-11-02T13:15:10.247Z,51.40
2018-11-02T13:17:41.455Z,51.80
2018-11-02T13:20:10.362Z,51.10
2018-11-02T13:22:40.971Z,52.00
2018-11-02T13:25:11.249Z,52.60
2018-11-02T13:27:40.143Z,53.00
2018-11-02T13:30:15.937Z,52.60
2018-11-02T13:32:43.815Z,52.30
2018-11-02T13:35:14.440Z,52.20
2018-11-02T13:37:43.162Z,53.70
2018-11-02T13:40:21.564Z,54.30
2018-11-02T13:42:50.802Z,51.90
2018-11-02T13:45:21.731Z,52.40
2018-11-02T13:47:49.696Z,52.30
2018-11-02T13:50:19.511Z,50.80
2018-11-02T13:52:48.096Z,51.60
2018-11-02T13:55:18.848Z,52.00
2018-11-02T13:57:46.817Z,52.60
2018-11-02T14:00:17.004Z,53.20
2018-11-02T14:02:46.672Z,53.70
2018-11-02T14:05:16.176Z,54.90
2018-11-02T14:07:44.191Z,55.30
2018-11-02T14:10:15.659Z,55.10
2018-11-02T14:12:44.803Z,55.80
2018-11-02T14:15:16.467Z,56.40
2018-11-02T14:17:45.267Z,56.30
2018-11-02T14:20:14.045Z,57.10
2018-11-02T14:22:42.011Z,55.40
2018-11-02T14:25:13.510Z,55.70
2018-11-02T14:27:43.008Z,54.90
2018-11-02T14:30:13.750Z,54.60
2018-11-02T14:32:41.753Z,53.80
2018-11-02T14:35:10.803Z,54.30
2018-11-02T14:37:39.056Z,53.30
2018-11-02T14:40:08.165Z,54.30
2018-11-02T14:42:38.473Z,56.30
2018-11-02T14:45:11.358Z,56.50
2018-11-02T14:47:39.324Z,56.50
2018-11-02T14:50:09.589Z,56.40
2018-11-02T14:52:39.330Z,57.50
2018-11-02T14:55:09.362Z,55.60
2018-11-02T14:57:39.979Z,54.30
2018-11-02T15:00:10.891Z,55.60
2018-11-02T15:02:39.505Z,57.10
2018-11-02T15:05:11.684Z,56.90
2018-11-02T15:07:41.960Z,58.00
2018-11-02T15:10:09.989Z,58.20
2018-11-02T15:12:39.979Z,57.40
2018-11-02T15:15:08.340Z,57.40
2018-11-02T15:17:36.279Z,57.50
2018-11-02T15:20:07.154Z,56.70
2018-11-02T15:22:38.319Z,57.40
2018-11-02T15:25:10.786Z,57.00
2018-11-02T15:27:43.605Z,58.10
2018-11-02T15:30:17.145Z,58.50
2018-11-02T15:32:48.570Z,57.20
2018-11-02T15:35:19.799Z,57.50
2018-11-02T15:37:55.824Z,58.10
2018-11-02T15:40:27.914Z,57.80
2018-11-02T15:42:55.957Z,58.70
2018-11-02T15:45:25.391Z,59.60
2018-11-02T15:47:54.954Z,60.20
2018-11-02T15:50:28.738Z,59.90
2018-11-02T15:53:02.528Z,59.40
2018-11-02T15:55:36.530Z,60.40
2018-11-02T15:58:12.760Z,61.10
2018-11-02T16:00:43.885Z,60.00
2018-11-02T16:03:13.608Z,62.10
2018-11-02T16:05:59.472Z,62.50
2018-11-02T16:08:29.250Z,61.00
2018-11-02T16:10:58.401Z,61.10
2018-11-02T16:13:28.699Z,61.40
2018-11-02T16:15:59.089Z,62.10
2018-11-02T16:18:28.834Z,62.20
2018-11-02T16:20:58.821Z,63.90
2018-11-02T16:23:28.585Z,66.00
2018-11-02T16:25:58.386Z,65.80
2018-11-02T16:28:31.387Z,65.20
2018-11-02T16:31:00.255Z,66.30
2018-11-02T16:33:30.132Z,64.70
2018-11-02T16:36:01.297Z,64.30
2018-11-02T16:38:31.998Z,65.10
2018-11-02T16:41:01.941Z,64.80
2018-11-02T16:43:31.058Z,65.50
2018-11-02T16:46:00.355Z,66.60
2018-11-02T16:48:31.225Z,66.80
2018-11-02T16:51:09.231Z,67.40
2018-11-02T16:53:37.423Z,68.00
2018-11-02T16:56:05.655Z,68.20
2018-11-02T16:58:35.404Z,68.30
2018-11-02T17:01:04.645Z,69.10
2018-11-02T17:03:34.248Z,69.20
2018-11-02T17:06:06.015Z,69.50
2018-11-02T17:08:38.383Z,69.50
2018-11-02T17:11:33.186Z,70.20
2018-11-02T17:14:11.148Z,70.40
2018-11-02T17:16:45.708Z,71.90
2018-11-02T17:19:17.471Z,72.20
2018-11-02T17:21:45.908Z,72.60
2018-11-02T17:24:14.387Z,72.70
2018-11-02T17:26:45.481Z,73.00
2018-11-02T17:29:15.302Z,73.50
2018-11-02T17:31:48.159Z,73.30
2018-11-02T17:34:18.366Z,73.50
2018-11-02T17:36:53.812Z,73.80
2018-11-02T17:39:22.265Z,74.10
2018-11-02T17:41:55.546Z,74.40
2018-11-02T17:44:26.083Z,75.30
2018-11-02T17:47:06.336Z,75.10
2018-11-02T17:49:36.998Z,75.60
2018-11-02T17:52:09.270Z,75.80
2018-11-02T17:54:40.850Z,76.20
2018-11-02T17:57:10.394Z,77.20
2018-11-02T17:59:45.221Z,78.00
2018-11-02T18:02:19.097Z,77.00
2018-11-02T18:04:52.118Z,77.40
2018-11-02T18:07:26.289Z,77.40
2018-11-02T18:09:57.396Z,77.50
2018-11-02T18:12:26.461Z,78.00
2018-11-02T18:14:55.085Z,77.60
2018-11-02T18:17:40.988Z,78.00
2018-11-02T18:20:16.014Z,78.10
2018-11-02T18:22:47.946Z,78.20
2018-11-02T18:25:16.606Z,78.40
2018-11-02T18:27:49.669Z,78.20
2018-11-02T18:30:21.284Z,78.70
2018-11-02T18:32:51.005Z,78.90
2018-11-02T18:35:28.364Z,78.80
2018-11-02T18:38:02.866Z,79.20
2018-11-02T18:40:33.654Z,79.30
2018-11-02T18:43:09.822Z,79.10
2018-11-02T18:45:38.636Z,79.20
2018-11-02T18:48:25.980Z,79.30
2018-11-02T18:51:15.544Z,79.70
2018-11-02T18:54:07.205Z,79.90
2018-11-02T18:56:55.644Z,79.50
2018-11-02T18:59:51.250Z,80.10
2018-11-02T19:02:45.771Z,80.60
2018-11-02T19:05:41.514Z,80.60
2018-11-02T19:08:45.821Z,80.60
2018-11-02T19:11:40.168Z,80.00
2018-11-02T19:14:27.957Z,80.10
2018-11-02T19:17:21.705Z,79.70
2018-11-02T19:20:14.533Z,80.40
2018-11-02T19:23:04.629Z,80.40
2018-11-02T19:25:55.057Z,80.30
2018-11-02T19:28:43.402Z,80.70
2018-11-02T19:31:34.354Z,80.50
2018-11-02T19:36:55.775Z,81.00
2018-11-02T19:39:54.050Z,81.40
2018-11-02T19:42:45.404Z,82.10
2018-11-02T19:45:31.319Z,81.80
2018-11-02T19:48:19.899Z,81.80
2018-11-02T19:51:09.758Z,81.90
2018-11-02T19:54:00.671Z,82.30
2018-11-02T19:56:53.317Z,81.20
2018-11-02T19:59:49.942Z,81.70
2018-11-02T20:02:41.327Z,81.90
2018-11-02T20:05:31.722Z,82.30
2018-11-02T20:08:23.582Z,82.10
2018-11-02T20:11:11.200Z,82.10
2018-11-02T20:14:04.342Z,80.80
2018-11-02T20:16:52.370Z,80.90
2018-11-02T20:19:37.767Z,80.90
2018-11-02T20:22:27.343Z,80.80
2018-11-02T20:25:20.675Z,81.00
2018-11-02T20:28:07.311Z,81.50
2018-11-02T20:30:57.085Z,81.70
2018-11-02T20:33:52.271Z,82.00
2018-11-02T20:36:42.682Z,81.90
2018-11-02T20:39:34.922Z,81.50
2018-11-02T20:42:22.359Z,82.30
2018-11-02T20:45:15.269Z,82.60
2018-11-02T20:48:12.558Z,82.20
2018-11-02T20:51:04.936Z,83.00
2018-11-02T20:53:58.331Z,83.20
2018-11-02T20:56:46.168Z,83.70
2018-11-02T20:59:47.549Z,82.10
2018-11-02T21:02:39.354Z,81.80
2018-11-02T21:05:32.864Z,82.20
2018-11-02T21:08:23.349Z,82.80
2018-11-02T21:11:21.530Z,84.30
2018-11-02T21:14:15.021Z,84.40
2018-11-02T21:17:07.609Z,84.00
2018-11-02T21:28:15.648Z,82.50
2018-11-02T21:30:49.307Z,82.40
2018-11-02T21:33:25.264Z,82.80
2018-11-02T21:36:09.609Z,82.80
2018-11-02T21:38:42.622Z,82.80
2018-11-02T21:41:13.922Z,82.70
2018-11-02T21:43:50.632Z,83.30
2018-11-02T21:46:22.691Z,83.90
2018-11-02T21:48:56.687Z,83.30
2018-11-02T21:51:29.848Z,83.30
2018-11-02T21:54:00.827Z,83.60
2018-11-02T21:56:34.805Z,83.60
2018-11-02T21:59:12.571Z,83.60
2018-11-02T22:01:47.979Z,83.60
2018-11-02T22:04:19.131Z,83.60
2018-11-02T22:06:50.276Z,84.30
2018-11-02T22:09:20.647Z,83.80
2018-11-02T22:11:50.283Z,84.10
2018-11-02T22:14:25.892Z,83.60
2018-11-02T22:17:01.047Z,84.20
2018-11-02T22:19:33.131Z,84.20
2018-11-02T22:22:25.130Z,83.80
2018-11-02T22:24:57.980Z,84.10
2018-11-02T22:27:30.024Z,84.20
2018-11-02T22:30:06.228Z,83.80
2018-11-02T22:32:43.016Z,83.90
2018-11-02T22:35:29.017Z,83.80
2018-11-02T22:40:33.322Z,83.50
2018-11-02T22:43:08.585Z,82.90
2018-11-02T22:45:40.818Z,83.80
2018-11-02T22:52:52.353Z,82.80
2018-11-02T22:55:26.484Z,82.40
2018-11-02T22:58:03.260Z,82.30
2018-11-02T23:00:41.733Z,82.60
2018-11-02T23:03:18.971Z,82.90
2018-11-02T23:05:49.211Z,83.60
2018-11-02T23:08:19.389Z,82.90
2018-11-02T23:10:49.430Z,83.00
2018-11-02T23:13:18.074Z,83.10
2018-11-02T23:15:52.179Z,83.10
2018-11-02T23:18:24.432Z,82.80
2018-11-02T23:20:59.308Z,83.10
2018-11-02T23:23:27.384Z,82.90
2018-11-02T23:25:58.302Z,82.80
2018-11-02T23:28:29.373Z,82.20
2018-11-02T23:30:59.931Z,82.70
2018-11-02T23:33:30.681Z,83.20
2018-11-02T23:36:01.057Z,82.70
2018-11-02T23:38:31.331Z,82.20
2018-11-02T23:40:59.457Z,82.10
2018-11-02T23:43:29.933Z,82.20
2018-11-02T23:46:00.390Z,82.90
2018-11-02T23:48:30.722Z,83.40
2018-11-02T23:51:01.084Z,84.10
2018-11-02T23:53:29.088Z,83.80
2018-11-02T23:55:59.307Z,84.00
2018-11-02T23:58:29.342Z,84.40
